Airport View

Enter AWOS ICAO identifier for current METAR.

ex. KFNL

KVLD 202353Z 08008KT 10SM SCT065 27/18 A3017 RMK AO2 SLP222 T02670178 10322 20267 53009

21 Sep 2019 00:47

Frequency: 126.225

Phone: 229-245-8746

Other Area AWOS: KVAD - KHOE - K24J - KTVI

TAF KVLD 202320Z 2100/2124 07008KT P6SM FEW080 FM211400 09010G15KT P6SM SCT050